Time;durP1;ratioP1;P1;durP2;ratioP2;P2;SDS_P1;SDS_P2;PMS_P1;PMS_P2;Temp;Humidity;BMP_temperature;BMP_pressure;BME280_temperature;BME280_humidity;BME280_pressure;Samples;Min_cycle;Max_cycle;Signal;HPM_P1;HPM_P2
2022/09/05 00:02:37;;;;;;;4.60;4.20;;;;;;;;;;5042478;28;20545;-80
2022/09/05 00:05:11;;;;;;;5.70;4.32;;;;;;;;;;5040122;28;20419;-81
2022/09/05 00:07:41;;;;;;;4.32;3.92;;;;;;;;;;5040586;28;20417;-80
2022/09/05 00:10:11;;;;;;;4.10;3.60;;;;;;;;;;5042838;28;20850;-80
2022/09/05 00:12:38;;;;;;;4.20;3.90;;;;;;;;;;5041818;28;20503;-80
2022/09/05 00:15:26;;;;;;;4.80;4.40;;;;;;;;;;5059968;28;20446;-81
2022/09/05 00:18:01;;;;;;;4.40;4.00;;;;;;;;;;5056447;28;20455;-80
2022/09/05 00:20:33;;;;;;;5.03;3.77;;;;;;;;;;5061871;28;20418;-81
2022/09/05 00:23:05;;;;;;;4.57;3.70;;;;;;;;;;5060235;28;20429;-81
2022/09/05 00:25:45;;;;;;;4.97;3.90;;;;;;;;;;5061125;28;20415;-80
2022/09/05 00:28:17;;;;;;;7.45;4.35;;;;;;;;;;5060756;28;20408;-80
2022/09/05 00:30:47;;;;;;;4.23;3.87;;;;;;;;;;5061467;28;20431;-81
2022/09/05 00:33:25;;;;;;;4.10;3.80;;;;;;;;;;5060147;28;20424;-81
2022/09/05 00:35:59;;;;;;;5.25;4.15;;;;;;;;;;5061065;28;20432;-81
2022/09/05 00:38:27;;;;;;;4.20;3.90;;;;;;;;;;5061436;28;20421;-81
2022/09/05 00:40:55;;;;;;;4.72;4.30;;;;;;;;;;5061335;28;20435;-80
2022/09/05 00:43:24;;;;;;;4.93;4.35;;;;;;;;;;5058002;28;20505;-81
2022/09/05 00:45:53;;;;;;;3.88;3.58;;;;;;;;;;5061577;28;20456;-81
2022/09/05 00:48:25;;;;;;;5.43;4.43;;;;;;;;;;5052423;28;20442;-81
2022/09/05 00:51:01;;;;;;;5.43;4.70;;;;;;;;;;5039911;28;20488;-81
2022/09/05 00:53:31;;;;;;;4.20;3.80;;;;;;;;;;5040776;28;20425;-80
2022/09/05 00:56:03;;;;;;;5.10;4.13;;;;;;;;;;5040469;28;20429;-81
2022/09/05 00:58:51;;;;;;;4.88;4.47;;;;;;;;;;5038974;28;20425;-81
2022/09/05 01:01:25;;;;;;;4.95;4.50;;;;;;;;;;5036655;28;20489;-81
2022/09/05 01:04:00;;;;;;;5.00;4.30;;;;;;;;;;5041661;28;20418;-80
2022/09/05 01:06:31;;;;;;;4.33;3.93;;;;;;;;;;5040467;28;20471;-81
2022/09/05 01:09:19;;;;;;;4.40;4.00;;;;;;;;;;5040584;28;20442;-80
2022/09/05 01:11:50;;;;;;;4.83;4.43;;;;;;;;;;5038329;28;20436;-81
2022/09/05 01:14:24;;;;;;;6.15;4.40;;;;;;;;;;5038989;28;20499;-80
2022/09/05 01:17:03;;;;;;;6.18;4.25;;;;;;;;;;5039850;28;20923;-81
2022/09/05 01:19:40;;;;;;;5.65;4.72;;;;;;;;;;5039916;28;20975;-81
2022/09/05 01:22:17;;;;;;;4.63;4.00;;;;;;;;;;5040231;28;20429;-81
2022/09/05 01:24:58;;;;;;;5.75;4.50;;;;;;;;;;5039170;28;20431;-81
2022/09/05 01:27:40;;;;;;;6.20;4.30;;;;;;;;;;5035975;28;20434;-81
2022/09/05 01:30:08;;;;;;;4.15;3.75;;;;;;;;;;5038899;28;20435;-81
2022/09/05 01:32:39;;;;;;;5.07;4.20;;;;;;;;;;5040424;28;20417;-81
2022/09/05 01:35:20;;;;;;;5.05;4.55;;;;;;;;;;5040098;28;20436;-81
2022/09/05 01:37:48;;;;;;;5.00;4.50;;;;;;;;;;5039947;28;20425;-81
2022/09/05 01:40:18;;;;;;;6.47;4.57;;;;;;;;;;5038931;28;20431;-81
2022/09/05 01:42:55;;;;;;;4.63;4.10;;;;;;;;;;5038486;28;20428;-81
2022/09/05 01:45:26;;;;;;;5.40;4.47;;;;;;;;;;5038488;28;20788;-81
2022/09/05 01:48:01;;;;;;;5.15;4.70;;;;;;;;;;5040263;28;20430;-81
2022/09/05 01:50:35;;;;;;;4.18;3.55;;;;;;;;;;5039731;28;20433;-81
2022/09/05 01:53:20;;;;;;;4.75;4.20;;;;;;;;;;5040243;28;20785;-81
2022/09/05 01:55:51;;;;;;;6.07;4.45;;;;;;;;;;5039452;28;20417;-81
2022/09/05 01:58:22;;;;;;;4.70;4.30;;;;;;;;;;5038691;28;20453;-81
2022/09/05 02:00:54;;;;;;;4.97;3.90;;;;;;;;;;5040860;28;20410;-81
2022/09/05 02:03:23;;;;;;;6.68;4.75;;;;;;;;;;5039268;28;20477;-81
2022/09/05 02:06:05;;;;;;;5.28;4.55;;;;;;;;;;5039972;28;21059;-81
2022/09/05 02:08:49;;;;;;;4.82;4.10;;;;;;;;;;5038534;28;20800;-81
2022/09/05 02:11:16;;;;;;;4.30;4.00;;;;;;;;;;5041281;28;20437;-81
2022/09/05 02:13:48;;;;;;;5.05;4.22;;;;;;;;;;5038300;28;20445;-81
2022/09/05 02:16:25;;;;;;;5.65;4.15;;;;;;;;;;5039653;28;20441;-81
2022/09/05 02:18:54;;;;;;;4.68;4.28;;;;;;;;;;5039137;28;20510;-81
2022/09/05 02:21:25;;;;;;;4.60;4.20;;;;;;;;;;5038747;28;20438;-81
2022/09/05 02:23:54;;;;;;;5.00;4.50;;;;;;;;;;5039317;28;20788;-81
2022/09/05 02:26:24;;;;;;;4.50;4.10;;;;;;;;;;5038124;28;20433;-81
2022/09/05 02:29:01;;;;;;;4.80;4.30;;;;;;;;;;5039003;28;20426;-81
2022/09/05 02:31:32;;;;;;;4.70;4.30;;;;;;;;;;5040206;28;20429;-81
2022/09/05 02:34:00;;;;;;;4.80;4.30;;;;;;;;;;5037022;28;20426;-80
2022/09/05 02:36:30;;;;;;;4.87;4.47;;;;;;;;;;5040097;28;20430;-81
2022/09/05 02:38:59;;;;;;;5.68;4.50;;;;;;;;;;5037262;28;20425;-81
2022/09/05 02:41:30;;;;;;;4.68;4.10;;;;;;;;;;5039071;28;20945;-80
2022/09/05 02:44:00;;;;;;;5.32;4.55;;;;;;;;;;5038212;28;20406;-81
2022/09/05 02:46:29;;;;;;;5.22;4.78;;;;;;;;;;5039994;28;20784;-81
2022/09/05 02:48:59;;;;;;;4.80;4.30;;;;;;;;;;5039359;28;20432;-81
2022/09/05 02:51:27;;;;;;;5.38;4.63;;;;;;;;;;5043105;28;20444;-81
2022/09/05 02:53:55;;;;;;;5.40;4.90;;;;;;;;;;5042011;28;20428;-81
2022/09/05 02:56:32;;;;;;;4.60;4.20;;;;;;;;;;5058438;28;21422;-81
2022/09/05 02:59:04;;;;;;;5.95;5.03;;;;;;;;;;5043970;28;20429;-81
2022/09/05 03:01:36;;;;;;;4.63;4.22;;;;;;;;;;5043219;28;20442;-81
2022/09/05 03:04:09;;;;;;;4.85;4.10;;;;;;;;;;5041535;28;20453;-81
2022/09/05 03:06:39;;;;;;;5.05;4.40;;;;;;;;;;5043279;28;20433;-81
2022/09/05 03:09:17;;;;;;;6.63;4.90;;;;;;;;;;5041711;28;20425;-81
2022/09/05 03:12:09;;;;;;;5.30;4.80;;;;;;;;;;5044333;28;20436;-81
2022/09/05 03:14:55;;;;;;;4.78;4.38;;;;;;;;;;5041206;28;20423;-80
2022/09/05 03:17:34;;;;;;;5.45;4.70;;;;;;;;;;5042745;28;20434;-81
2022/09/05 03:20:18;;;;;;;5.63;5.13;;;;;;;;;;5039896;28;20419;-81
2022/09/05 03:23:09;;;;;;;5.00;4.50;;;;;;;;;;5042150;28;20503;-81
2022/09/05 03:25:50;;;;;;;5.38;4.60;;;;;;;;;;5043212;28;20433;-81
2022/09/05 03:28:32;;;;;;;5.00;4.50;;;;;;;;;;5009188;28;20456;-81
2022/09/05 03:31:09;;;;;;;5.00;4.50;;;;;;;;;;5041640;28;20429;-81
2022/09/05 03:33:53;;;;;;;5.50;4.60;;;;;;;;;;5042760;28;20504;-81
2022/09/05 03:36:38;;;;;;;5.10;4.60;;;;;;;;;;5042651;28;20435;-81
2022/09/05 03:39:22;;;;;;;6.30;5.00;;;;;;;;;;5041829;28;20448;-81
2022/09/05 03:41:59;;;;;;;5.40;4.90;;;;;;;;;;5040952;28;20434;-81
2022/09/05 03:44:32;;;;;;;5.35;4.70;;;;;;;;;;5041195;28;20957;-81
2022/09/05 03:47:11;;;;;;;4.60;4.10;;;;;;;;;;5041972;28;20423;-81
2022/09/05 03:49:56;;;;;;;5.10;4.70;;;;;;;;;;5038262;28;20433;-81
2022/09/05 03:52:28;;;;;;;5.30;4.72;;;;;;;;;;5042695;28;20462;-80
2022/09/05 03:55:07;;;;;;;5.50;4.80;;;;;;;;;;5041359;28;20425;-81
2022/09/05 03:57:42;;;;;;;5.30;4.80;;;;;;;;;;5038220;28;20502;-81
2022/09/05 04:00:10;;;;;;;5.25;4.75;;;;;;;;;;5038769;28;20435;-81
2022/09/05 04:02:43;;;;;;;6.47;4.80;;;;;;;;;;5040931;28;20919;-81
2022/09/05 04:05:12;;;;;;;5.80;4.80;;;;;;;;;;5037603;28;20427;-81
2022/09/05 04:07:42;;;;;;;5.30;4.80;;;;;;;;;;5040837;28;20437;-81
2022/09/05 04:10:12;;;;;;;5.32;4.70;;;;;;;;;;5040479;28;20426;-81
2022/09/05 04:12:47;;;;;;;6.85;4.82;;;;;;;;;;5040533;28;20514;-80
2022/09/05 04:15:16;;;;;;;5.00;4.60;;;;;;;;;;5041881;28;20529;-80
2022/09/05 04:17:46;;;;;;;5.43;4.30;;;;;;;;;;5039227;28;20433;-81
2022/09/05 04:20:15;;;;;;;5.25;4.80;;;;;;;;;;5040939;28;20429;-81
2022/09/05 04:23:01;;;;;;;6.50;5.10;;;;;;;;;;5040421;28;20470;-81
2022/09/05 04:25:35;;;;;;;5.30;4.80;;;;;;;;;;5038647;28;20429;-81
2022/09/05 04:28:07;;;;;;;6.68;4.88;;;;;;;;;;5042779;28;20421;-81
2022/09/05 04:30:37;;;;;;;5.60;4.80;;;;;;;;;;5039097;28;20475;-81
2022/09/05 04:33:08;;;;;;;5.20;4.70;;;;;;;;;;5041766;28;20402;-81
2022/09/05 04:35:38;;;;;;;5.53;4.65;;;;;;;;;;5039795;28;20456;-81
2022/09/05 04:38:12;;;;;;;6.05;4.88;;;;;;;;;;5041345;28;20413;-81
2022/09/05 04:40:41;;;;;;;5.30;4.70;;;;;;;;;;5040179;28;20434;-80
2022/09/05 04:43:09;;;;;;;5.03;4.63;;;;;;;;;;5041824;28;20409;-81
2022/09/05 04:45:39;;;;;;;5.63;5.10;;;;;;;;;;5039669;28;20439;-81
2022/09/05 04:48:08;;;;;;;5.18;4.68;;;;;;;;;;5039437;28;20952;-81
2022/09/05 04:50:42;;;;;;;5.95;5.07;;;;;;;;;;5039762;28;20433;-80
2022/09/05 04:53:14;;;;;;;6.30;5.10;;;;;;;;;;5038852;28;20421;-81
2022/09/05 04:55:42;;;;;;;5.80;5.20;;;;;;;;;;5040195;28;20425;-81
2022/09/05 04:58:13;;;;;;;7.57;5.30;;;;;;;;;;5040107;28;21291;-81
2022/09/05 05:00:42;;;;;;;5.38;4.88;;;;;;;;;;5040624;28;20442;-81
2022/09/05 05:03:14;;;;;;;6.30;5.00;;;;;;;;;;5041057;28;20415;-81
2022/09/05 05:05:55;;;;;;;6.57;4.90;;;;;;;;;;5040076;28;20432;-81
2022/09/05 05:08:24;;;;;;;5.40;4.77;;;;;;;;;;5040097;28;20448;-81
2022/09/05 05:10:55;;;;;;;5.75;5.15;;;;;;;;;;5040291;28;20435;-81
2022/09/05 05:13:25;;;;;;;5.25;4.70;;;;;;;;;;5040642;28;20420;-81
2022/09/05 05:15:53;;;;;;;5.18;4.55;;;;;;;;;;5040351;28;20438;-80
2022/09/05 05:18:24;;;;;;;5.10;4.70;;;;;;;;;;5040813;28;20415;-81
2022/09/05 05:20:53;;;;;;;5.90;5.10;;;;;;;;;;5041043;28;20437;-81
2022/09/05 05:23:20;;;;;;;6.32;4.90;;;;;;;;;;5039757;28;20415;-81
2022/09/05 05:25:49;;;;;;;5.63;5.15;;;;;;;;;;5039536;28;20433;-81
2022/09/05 05:28:21;;;;;;;5.30;4.80;;;;;;;;;;5039068;28;20422;-80
2022/09/05 05:30:47;;;;;;;5.72;5.13;;;;;;;;;;5040975;28;20436;-80
2022/09/05 05:33:22;;;;;;;6.00;5.18;;;;;;;;;;5040398;28;20433;-81
2022/09/05 05:35:50;;;;;;;6.57;5.13;;;;;;;;;;5040293;28;20929;-81
2022/09/05 05:38:23;;;;;;;6.68;5.05;;;;;;;;;;5039761;28;20958;-81
2022/09/05 05:40:52;;;;;;;7.70;5.63;;;;;;;;;;5038829;28;20417;-81
2022/09/05 05:43:20;;;;;;;7.40;6.00;;;;;;;;;;5036792;28;20923;-81
2022/09/05 05:45:46;;;;;;;7.20;5.32;;;;;;;;;;5035298;28;20501;-81
2022/09/05 05:48:28;;;;;;;5.90;5.40;;;;;;;;;;5036650;28;20430;-81
2022/09/05 05:51:01;;;;;;;5.40;4.90;;;;;;;;;;5039831;28;20922;-81
2022/09/05 05:53:29;;;;;;;6.97;5.65;;;;;;;;;;5039644;28;20954;-81
2022/09/05 05:56:01;;;;;;;7.28;5.68;;;;;;;;;;5036169;28;20431;-81
2022/09/05 05:58:32;;;;;;;5.47;4.47;;;;;;;;;;5034602;28;20417;-81
2022/09/05 06:01:13;;;;;;;6.10;5.40;;;;;;;;;;5037968;28;20429;-80
2022/09/05 06:03:45;;;;;;;6.30;5.70;;;;;;;;;;5038645;28;20435;-81
2022/09/05 06:06:21;;;;;;;6.00;5.40;;;;;;;;;;5039350;28;20888;-81
2022/09/05 06:09:02;;;;;;;6.13;5.60;;;;;;;;;;5038207;28;20429;-81
2022/09/05 06:11:48;;;;;;;6.95;5.95;;;;;;;;;;5037753;28;20437;-81
2022/09/05 06:14:27;;;;;;;6.72;5.20;;;;;;;;;;5038906;28;20414;-81
2022/09/05 06:17:11;;;;;;;8.65;7.82;;;;;;;;;;5040084;28;20436;-81
2022/09/05 06:19:56;;;;;;;6.00;5.40;;;;;;;;;;5035603;28;20436;-81
2022/09/05 06:22:37;;;;;;;6.97;5.53;;;;;;;;;;5038119;28;20802;-81
2022/09/05 06:25:18;;;;;;;6.20;5.50;;;;;;;;;;5041699;28;20425;-81
2022/09/05 06:27:51;;;;;;;6.13;5.53;;;;;;;;;;5030209;28;20429;-81
2022/09/05 06:30:19;;;;;;;7.27;5.40;;;;;;;;;;5044175;28;20431;-80
2022/09/05 06:32:55;;;;;;;7.93;5.50;;;;;;;;;;5041473;28;20429;-80
2022/09/05 06:35:27;;;;;;;6.53;5.87;;;;;;;;;;5040932;28;20429;-81
2022/09/05 06:38:03;;;;;;;6.45;5.72;;;;;;;;;;5038400;28;20547;-81
2022/09/05 06:40:33;;;;;;;6.00;5.40;;;;;;;;;;5041471;28;20425;-81
2022/09/05 06:43:07;;;;;;;7.43;6.35;;;;;;;;;;5043849;28;20421;-81
2022/09/05 06:46:00;;;;;;;6.40;5.80;;;;;;;;;;5043284;28;20452;-82
2022/09/05 06:48:29;;;;;;;6.72;6.03;;;;;;;;;;5042066;28;20821;-80
2022/09/05 06:51:16;;;;;;;9.45;5.47;;;;;;;;;;5042034;28;20416;-80
2022/09/05 06:54:00;;;;;;;6.80;6.10;;;;;;;;;;5036801;28;20417;-80
2022/09/05 06:56:38;;;;;;;7.40;6.10;;;;;;;;;;5043002;28;20773;-80
2022/09/05 06:59:28;;;;;;;6.97;6.22;;;;;;;;;;5043315;28;20427;-80
2022/09/05 07:01:57;;;;;;;8.10;6.32;;;;;;;;;;5040169;28;20516;-81
2022/09/05 07:04:31;;;;;;;9.07;5.77;;;;;;;;;;5043174;28;20496;-80
2022/09/05 07:07:05;;;;;;;6.32;5.72;;;;;;;;;;5040222;28;20424;-80
2022/09/05 07:09:39;;;;;;;7.20;6.47;;;;;;;;;;5038467;28;20415;-80
2022/09/05 07:12:14;;;;;;;6.95;6.28;;;;;;;;;;5041096;28;20483;-80
2022/09/05 07:14:47;;;;;;;7.30;5.72;;;;;;;;;;5039451;28;20429;-80
2022/09/05 07:17:16;;;;;;;6.70;5.95;;;;;;;;;;5041351;28;20423;-80
2022/09/05 07:19:49;;;;;;;8.00;5.90;;;;;;;;;;5042344;28;20435;-80
2022/09/05 07:22:25;;;;;;;6.70;6.00;;;;;;;;;;5041415;28;20475;-79
2022/09/05 07:24:52;;;;;;;6.87;5.90;;;;;;;;;;5040244;28;20429;-80
2022/09/05 07:27:28;;;;;;;7.43;5.72;;;;;;;;;;5041557;28;20911;-80
2022/09/05 07:29:57;;;;;;;7.70;6.75;;;;;;;;;;5042879;28;20526;-80
2022/09/05 07:32:23;;;;;;;7.40;5.90;;;;;;;;;;5043813;28;20948;-80
2022/09/05 07:34:51;;;;;;;7.30;6.10;;;;;;;;;;5040630;28;20451;-80
2022/09/05 07:37:20;;;;;;;7.72;6.45;;;;;;;;;;5042105;28;20411;-80
2022/09/05 07:39:50;;;;;;;7.53;5.95;;;;;;;;;;5041510;28;20429;-80
2022/09/05 07:42:19;;;;;;;6.90;5.90;;;;;;;;;;5041323;28;20424;-80
2022/09/05 07:44:50;;;;;;;7.03;6.32;;;;;;;;;;5039816;28;20733;-80
2022/09/05 07:47:20;;;;;;;7.63;6.40;;;;;;;;;;5038707;28;20545;-80
2022/09/05 07:49:47;;;;;;;7.05;6.28;;;;;;;;;;5038444;28;20442;-80
2022/09/05 07:52:15;;;;;;;7.55;6.30;;;;;;;;;;5043716;28;20439;-80
2022/09/05 07:54:45;;;;;;;9.93;6.93;;;;;;;;;;5042984;28;20454;-80
2022/09/05 07:57:15;;;;;;;8.38;6.00;;;;;;;;;;5040159;28;20437;-81
2022/09/05 07:59:42;;;;;;;7.05;6.40;;;;;;;;;;5042509;28;20452;-81
2022/09/05 08:02:11;;;;;;;7.32;6.63;;;;;;;;;;5043135;28;20434;-80
2022/09/05 08:04:39;;;;;;;7.50;6.80;;;;;;;;;;5040007;28;20444;-80
2022/09/05 08:07:07;;;;;;;6.93;6.20;;;;;;;;;;5040581;28;20502;-80
2022/09/05 08:09:35;;;;;;;7.57;5.90;;;;;;;;;;5040091;28;20925;-81
2022/09/05 08:12:06;;;;;;;8.10;5.90;;;;;;;;;;5040438;28;20436;-80
2022/09/05 08:14:42;;;;;;;7.22;6.53;;;;;;;;;;5040715;28;20439;-81
2022/09/05 08:17:13;;;;;;;7.43;6.72;;;;;;;;;;5039780;28;20479;-81
2022/09/05 08:19:45;;;;;;;6.95;6.35;;;;;;;;;;5041204;28;20910;-81
2022/09/05 08:22:15;;;;;;;7.63;6.07;;;;;;;;;;5043090;28;20421;-80
2022/09/05 08:24:43;;;;;;;8.30;5.90;;;;;;;;;;5040147;28;20431;-81
2022/09/05 08:27:12;;;;;;;8.23;6.15;;;;;;;;;;5042827;28;20421;-81
2022/09/05 08:29:39;;;;;;;7.20;6.18;;;;;;;;;;5042018;28;20858;-80
2022/09/05 08:32:07;;;;;;;7.53;6.70;;;;;;;;;;5041301;28;20415;-81
2022/09/05 08:34:42;;;;;;;7.22;6.45;;;;;;;;;;5041208;28;20489;-81
2022/09/05 08:37:11;;;;;;;10.15;7.00;;;;;;;;;;5041162;28;20492;-81
2022/09/05 08:39:37;;;;;;;7.90;6.00;;;;;;;;;;5040043;28;20441;-81
2022/09/05 08:42:09;;;;;;;9.48;6.25;;;;;;;;;;5040713;28;20427;-81
2022/09/05 08:44:37;;;;;;;7.17;6.27;;;;;;;;;;5042471;28;20419;-81
2022/09/05 08:47:11;;;;;;;7.53;6.73;;;;;;;;;;5040700;28;20430;-81
2022/09/05 08:49:48;;;;;;;7.57;6.07;;;;;;;;;;5039555;28;20427;-81
2022/09/05 08:52:23;;;;;;;7.65;6.85;;;;;;;;;;5042882;28;20765;-80
2022/09/05 08:54:55;;;;;;;7.90;6.70;;;;;;;;;;5040489;28;20523;-81
2022/09/05 08:57:37;;;;;;;7.20;6.60;;;;;;;;;;5037820;28;20433;-80
2022/09/05 09:00:06;;;;;;;7.60;6.80;;;;;;;;;;5042235;28;20411;-81
2022/09/05 09:02:41;;;;;;;6.97;6.28;;;;;;;;;;5038474;28;20943;-80
2022/09/05 09:05:13;;;;;;;7.13;6.50;;;;;;;;;;5039521;28;20423;-80
2022/09/05 09:07:42;;;;;;;7.25;6.55;;;;;;;;;;5039381;28;20442;-80
2022/09/05 09:10:16;;;;;;;8.17;6.40;;;;;;;;;;5040024;28;20422;-80
2022/09/05 09:12:57;;;;;;;8.00;6.05;;;;;;;;;;5042920;28;20444;-80
2022/09/05 09:15:25;;;;;;;8.05;6.60;;;;;;;;;;5038151;28;20426;-80
2022/09/05 09:17:53;;;;;;;8.80;6.90;;;;;;;;;;5039919;28;20421;-81
2022/09/05 09:20:32;;;;;;;7.53;6.72;;;;;;;;;;5038928;28;20415;-80
2022/09/05 09:23:01;;;;;;;6.60;6.00;;;;;;;;;;5039002;28;20412;-80
2022/09/05 09:25:28;;;;;;;7.10;6.50;;;;;;;;;;5040532;28;20448;-81
2022/09/05 09:28:04;;;;;;;9.70;6.80;;;;;;;;;;5039380;28;20905;-81
2022/09/05 09:30:31;;;;;;;12.05;6.80;;;;;;;;;;5039358;28;20453;-81
2022/09/05 09:33:01;;;;;;;8.98;6.85;;;;;;;;;;5039568;28;20435;-81
2022/09/05 09:35:34;;;;;;;7.15;6.55;;;;;;;;;;5039242;28;20517;-81
2022/09/05 09:38:06;;;;;;;8.02;6.30;;;;;;;;;;5038924;28;20455;-81
2022/09/05 09:40:43;;;;;;;8.40;6.77;;;;;;;;;;5039047;28;20415;-81
2022/09/05 09:43:15;;;;;;;8.73;6.70;;;;;;;;;;5038357;28;20967;-81
2022/09/05 09:45:52;;;;;;;8.25;6.47;;;;;;;;;;5040863;28;20428;-81
2022/09/05 09:48:37;;;;;;;7.22;6.60;;;;;;;;;;5040255;28;20508;-80
2022/09/05 09:51:11;;;;;;;7.15;6.45;;;;;;;;;;5039261;28;20417;-81
2022/09/05 09:53:43;;;;;;;12.07;6.70;;;;;;;;;;5039993;28;20474;-81
2022/09/05 09:56:23;;;;;;;7.20;6.50;;;;;;;;;;5039305;28;20430;-81
2022/09/05 09:59:09;;;;;;;7.00;6.30;;;;;;;;;;5038814;28;20424;-80
2022/09/05 10:01:38;;;;;;;8.25;6.70;;;;;;;;;;5041243;28;20470;-80
2022/09/05 10:04:14;;;;;;;7.30;6.68;;;;;;;;;;5040565;28;20419;-80
2022/09/05 10:06:54;;;;;;;8.32;6.40;;;;;;;;;;5037655;28;20481;-80
2022/09/05 10:09:28;;;;;;;6.80;6.20;;;;;;;;;;5039964;28;20477;-81
2022/09/05 10:12:14;;;;;;;8.38;6.47;;;;;;;;;;5040944;28;20433;-81
2022/09/05 10:15:01;;;;;;;6.35;5.85;;;;;;;;;;5039779;28;20434;-80
2022/09/05 10:17:48;;;;;;;9.03;6.90;;;;;;;;;;5033661;28;20506;-82
2022/09/05 10:20:25;;;;;;;7.70;6.80;;;;;;;;;;5040014;28;20426;-81
2022/09/05 10:23:02;;;;;;;7.25;6.30;;;;;;;;;;5040714;28;20429;-81
2022/09/05 10:25:43;;;;;;;12.55;6.18;;;;;;;;;;5038202;28;20436;-80
2022/09/05 10:28:12;;;;;;;7.18;6.50;;;;;;;;;;5038956;28;20508;-82
2022/09/05 10:30:51;;;;;;;7.25;6.55;;;;;;;;;;5038542;28;20428;-81
2022/09/05 10:33:28;;;;;;;9.18;6.32;;;;;;;;;;5039878;28;20409;-80
2022/09/05 10:36:00;;;;;;;8.20;6.45;;;;;;;;;;5037256;28;20424;-82
2022/09/05 10:38:32;;;;;;;8.90;6.07;;;;;;;;;;5037281;28;20417;-82
2022/09/05 10:41:02;;;;;;;6.70;6.10;;;;;;;;;;5039327;28;20435;-81
2022/09/05 10:43:31;;;;;;;7.55;5.93;;;;;;;;;;5038738;28;20515;-80
2022/09/05 10:46:03;;;;;;;9.83;6.63;;;;;;;;;;5040203;28;20434;-80
2022/09/05 10:48:34;;;;;;;7.47;6.30;;;;;;;;;;5038362;28;20423;-81
2022/09/05 10:51:04;;;;;;;6.85;5.95;;;;;;;;;;5039933;28;20441;-79
2022/09/05 10:53:40;;;;;;;7.07;5.88;;;;;;;;;;5039568;28;20423;-79
2022/09/05 10:56:09;;;;;;;7.60;6.20;;;;;;;;;;5041129;28;20429;-82
2022/09/05 10:58:52;;;;;;;6.90;6.20;;;;;;;;;;5040670;28;20424;-80
2022/09/05 11:01:26;;;;;;;7.70;5.50;;;;;;;;;;5039951;28;20417;-79
2022/09/05 11:03:53;;;;;;;8.10;6.20;;;;;;;;;;5039849;28;20425;-82
2022/09/05 11:06:22;;;;;;;7.78;6.10;;;;;;;;;;5041390;28;20815;-79
2022/09/05 11:09:01;;;;;;;7.00;6.30;;;;;;;;;;5039647;28;20496;-79
2022/09/05 11:11:31;;;;;;;6.60;6.00;;;;;;;;;;5044279;28;20524;-80
2022/09/05 11:13:59;;;;;;;7.32;6.35;;;;;;;;;;5043863;28;20792;-81
2022/09/05 11:16:27;;;;;;;6.68;5.97;;;;;;;;;;5044958;28;20847;-80
2022/09/05 11:18:57;;;;;;;7.10;6.13;;;;;;;;;;5043996;28;20428;-80
2022/09/05 11:21:30;;;;;;;7.40;6.20;;;;;;;;;;5043819;28;20440;-80
2022/09/05 11:24:00;;;;;;;6.97;5.85;;;;;;;;;;5044362;28;20923;-83
2022/09/05 11:26:30;;;;;;;7.25;5.65;;;;;;;;;;5043427;28;20435;-80
2022/09/05 11:29:01;;;;;;;6.38;5.78;;;;;;;;;;5043859;28;20430;-80
2022/09/05 11:31:37;;;;;;;6.07;5.47;;;;;;;;;;5043243;28;20436;-80
2022/09/05 11:34:18;;;;;;;6.50;5.47;;;;;;;;;;5040158;28;20514;-80
2022/09/05 11:36:46;;;;;;;7.47;4.88;;;;;;;;;;5040450;28;20421;-80
2022/09/05 11:39:24;;;;;;;6.73;5.80;;;;;;;;;;5041489;28;20445;-79
2022/09/05 11:42:00;;;;;;;6.65;5.50;;;;;;;;;;5042122;28;20444;-80
2022/09/05 11:44:28;;;;;;;11.97;5.30;;;;;;;;;;5039967;28;20430;-80
2022/09/05 11:47:10;;;;;;;5.30;4.90;;;;;;;;;;5041439;28;20443;-80
2022/09/05 11:49:48;;;;;;;9.00;5.33;;;;;;;;;;5038304;28;20430;-80
2022/09/05 11:52:31;;;;;;;7.53;5.10;;;;;;;;;;5039331;28;20896;-80
2022/09/05 11:55:16;;;;;;;10.00;5.75;;;;;;;;;;5042405;28;20429;-81
2022/09/05 11:57:48;;;;;;;5.80;5.30;;;;;;;;;;5043474;28;20918;-80
2022/09/05 12:00:19;;;;;;;6.80;5.50;;;;;;;;;;5040548;28;20427;-80
2022/09/05 12:03:10;;;;;;;7.20;5.30;;;;;;;;;;5041597;28;20488;-80
2022/09/05 12:05:58;;;;;;;7.53;5.90;;;;;;;;;;5040528;28;20419;-79
2022/09/05 12:08:27;;;;;;;7.68;5.40;;;;;;;;;;5035065;28;20413;-79
2022/09/05 12:11:00;;;;;;;9.65;5.20;;;;;;;;;;5043187;28;20421;-80
2022/09/05 12:13:34;;;;;;;6.95;5.07;;;;;;;;;;5039885;28;20423;-80
2022/09/05 12:16:00;;;;;;;5.07;4.68;;;;;;;;;;5043841;28;20439;-80
2022/09/05 12:18:30;;;;;;;5.00;4.60;;;;;;;;;;5042043;28;20419;-80
2022/09/05 12:21:02;;;;;;;4.70;4.30;;;;;;;;;;5043479;28;20433;-80
2022/09/05 12:23:34;;;;;;;6.30;5.10;;;;;;;;;;5041626;28;20433;-80
2022/09/05 12:26:04;;;;;;;7.53;4.93;;;;;;;;;;5043420;28;20434;-79
2022/09/05 12:28:35;;;;;;;6.25;4.40;;;;;;;;;;5041758;28;20425;-79
2022/09/05 12:31:10;;;;;;;6.43;5.35;;;;;;;;;;5042391;28;20419;-81
2022/09/05 12:33:37;;;;;;;4.80;4.30;;;;;;;;;;5038950;28;20425;-79
2022/09/05 12:36:08;;;;;;;6.53;5.07;;;;;;;;;;5041781;28;20932;-80
2022/09/05 12:38:37;;;;;;;6.38;4.93;;;;;;;;;;5041394;28;20415;-79
2022/09/05 12:41:08;;;;;;;7.80;4.83;;;;;;;;;;5041365;28;20433;-82
2022/09/05 12:43:35;;;;;;;7.22;4.50;;;;;;;;;;5041922;28;20422;-79
2022/09/05 12:46:04;;;;;;;5.30;4.80;;;;;;;;;;5040674;28;20514;-80
2022/09/05 12:48:32;;;;;;;5.20;4.70;;;;;;;;;;5040073;28;20437;-80
2022/09/05 12:51:03;;;;;;;4.75;4.35;;;;;;;;;;5041235;28;20468;-80
2022/09/05 12:53:40;;;;;;;5.40;4.70;;;;;;;;;;5040930;28;20429;-80
2022/09/05 12:56:11;;;;;;;6.22;4.53;;;;;;;;;;5041493;28;20795;-81
2022/09/05 12:58:39;;;;;;;5.30;4.85;;;;;;;;;;5042144;28;20507;-80
2022/09/05 13:01:18;;;;;;;7.53;5.18;;;;;;;;;;5041764;28;20429;-80
2022/09/05 13:03:47;;;;;;;6.25;5.10;;;;;;;;;;5040623;28;20419;-81
2022/09/05 13:06:20;;;;;;;5.60;5.00;;;;;;;;;;5041052;28;20578;-80
2022/09/05 13:08:48;;;;;;;5.43;4.10;;;;;;;;;;5039934;28;20431;-81
2022/09/05 13:11:17;;;;;;;7.57;4.70;;;;;;;;;;5040826;28;20433;-81
2022/09/05 13:13:46;;;;;;;5.40;4.90;;;;;;;;;;5041976;28;20424;-79
2022/09/05 13:16:17;;;;;;;5.45;4.70;;;;;;;;;;5039459;28;20450;-80
2022/09/05 13:18:45;;;;;;;5.75;4.90;;;;;;;;;;5038894;28;20418;-81
2022/09/05 13:21:16;;;;;;;5.93;4.60;;;;;;;;;;5038837;28;20425;-80
2022/09/05 13:23:47;;;;;;;7.85;4.40;;;;;;;;;;5039359;28;20423;-80
2022/09/05 13:26:16;;;;;;;5.30;4.60;;;;;;;;;;5042977;28;20423;-80
2022/09/05 13:28:50;;;;;;;5.28;4.40;;;;;;;;;;5040109;28;20415;-82
2022/09/05 13:31:39;;;;;;;5.10;4.60;;;;;;;;;;5042379;28;20449;-81
2022/09/05 13:34:10;;;;;;;5.57;4.57;;;;;;;;;;5039841;28;20421;-80
2022/09/05 13:36:41;;;;;;;5.95;4.90;;;;;;;;;;5041422;28;20459;-80
2022/09/05 13:39:10;;;;;;;5.07;4.50;;;;;;;;;;5040841;28;20425;-80
2022/09/05 13:41:51;;;;;;;6.13;4.90;;;;;;;;;;5042436;28;20421;-81
2022/09/05 13:44:20;;;;;;;5.82;5.22;;;;;;;;;;5041265;28;20425;-80
2022/09/05 13:46:53;;;;;;;5.82;5.20;;;;;;;;;;5041240;28;20488;-80
2022/09/05 13:49:23;;;;;;;6.13;4.85;;;;;;;;;;5038765;28;20500;-80
2022/09/05 13:51:51;;;;;;;5.72;5.13;;;;;;;;;;5040294;28;20439;-80
2022/09/05 13:54:38;;;;;;;6.88;5.15;;;;;;;;;;5038005;28;20456;-80
2022/09/05 13:57:25;;;;;;;6.30;4.60;;;;;;;;;;5039690;28;20423;-80
2022/09/05 14:00:10;;;;;;;5.50;4.90;;;;;;;;;;5034219;28;20812;-80
2022/09/05 14:02:44;;;;;;;5.72;4.95;;;;;;;;;;5040031;28;20434;-80
2022/09/05 14:05:26;;;;;;;5.70;4.78;;;;;;;;;;5039976;28;20421;-80
2022/09/05 14:08:16;;;;;;;6.47;4.80;;;;;;;;;;5040524;28;20433;-80
2022/09/05 14:11:00;;;;;;;6.22;4.68;;;;;;;;;;5041371;28;20505;-80
2022/09/05 14:13:30;;;;;;;8.75;5.22;;;;;;;;;;5040374;28;20904;-80
2022/09/05 14:15:58;;;;;;;5.57;5.07;;;;;;;;;;5038937;28;20931;-80
2022/09/05 14:18:27;;;;;;;6.63;4.95;;;;;;;;;;5039333;28;20422;-80
2022/09/05 14:23:44;;;;;;;5.22;4.40;;;;;;;;;;5040594;28;20416;-83
2022/09/05 14:26:14;;;;;;;5.50;4.90;;;;;;;;;;5040208;28;20444;-79
2022/09/05 14:28:44;;;;;;;5.10;4.60;;;;;;;;;;5038204;28;20416;-81
2022/09/05 14:31:13;;;;;;;5.38;4.88;;;;;;;;;;5040900;28;20505;-81
2022/09/05 14:33:58;;;;;;;8.00;5.27;;;;;;;;;;5039745;28;20415;-81
2022/09/05 14:36:31;;;;;;;6.43;5.72;;;;;;;;;;5038706;28;20429;-81
2022/09/05 14:39:15;;;;;;;6.47;4.90;;;;;;;;;;5041538;28;20414;-81
2022/09/05 14:41:55;;;;;;;6.60;5.00;;;;;;;;;;5040486;28;20446;-81
2022/09/05 14:44:38;;;;;;;7.20;5.40;;;;;;;;;;5040415;28;20419;-81
2022/09/05 14:47:13;;;;;;;6.87;5.37;;;;;;;;;;5042942;28;20431;-81
2022/09/05 14:49:50;;;;;;;6.43;5.30;;;;;;;;;;5042328;28;20433;-81
2022/09/05 14:52:19;;;;;;;11.35;5.90;;;;;;;;;;5043069;28;20425;-81
2022/09/05 14:54:51;;;;;;;6.05;4.90;;;;;;;;;;5044016;28;20419;-80
2022/09/05 14:57:20;;;;;;;6.22;5.47;;;;;;;;;;5043890;28;21167;-81
2022/09/05 14:59:48;;;;;;;5.70;5.20;;;;;;;;;;5043789;28;20490;-81
2022/09/05 15:02:19;;;;;;;7.47;5.72;;;;;;;;;;5043481;28;20500;-80
2022/09/05 15:04:48;;;;;;;6.38;5.68;;;;;;;;;;5042948;28;20424;-80
2022/09/05 15:07:18;;;;;;;7.50;5.55;;;;;;;;;;5041991;28;20511;-81
2022/09/05 15:09:47;;;;;;;6.50;5.82;;;;;;;;;;5042062;28;20425;-79
2022/09/05 15:12:17;;;;;;;6.28;5.43;;;;;;;;;;5044620;28;20852;-79
2022/09/05 15:14:51;;;;;;;6.37;5.77;;;;;;;;;;5043947;28;20423;-79
2022/09/05 15:17:20;;;;;;;7.03;5.75;;;;;;;;;;5043584;28;20414;-79
2022/09/05 15:19:49;;;;;;;8.52;6.10;;;;;;;;;;5041776;28;20414;-79
2022/09/05 15:22:20;;;;;;;9.05;5.88;;;;;;;;;;5042887;28;21173;-79
2022/09/05 15:24:59;;;;;;;6.97;6.25;;;;;;;;;;5043891;28;21088;-80